La Aurora Airport Guatemala City US
ICAO: MGGT
IATA: GUA
Category: Medium
Scheduled Services: Yes

Elevation: 4952 ft
TransAlt. 18000 ft.

Airport Communications:
GUATEMALA RDO:126.9
CON:119.3
ATIS:126.5
CLNC DEL:120.7
GND:121.9
TWR:118.1

MGGT Zoom In..

If you have problems with the map follow the link
https://www.worldairports.se/pages/airport.php?
ICAO=MGGT

Runways:

(A) RW 01 length 9800 ft width 197 ft
ILS 110.10 / hdg 16

(B) RW 19 length 9800 ft width 197 ft
---- / hdg 196

Location; MGGT
Day. 18 / Time. 02.00 Zulu
* Altimeter: 30.27
* Temperature: 19° c. 66.2°f.
* Wind from: 180° Speed 10 kn.
Dewpoint: 16° c.
Visibility: 7000 m.
Clouds: Scattered 1600 ft.

MGGT 180200Z 18010KT 7000 SCT016 19/16 Q1025 A3027 HZ


Wind From 180°
Speed 10 kn.

 
 
jpsmedia.com for Web Design worldairports.se 2019   terms of use